Arnegard, ND (58835)

5:37 PM CDT on August 04, 2015 (GMT -0500)
Bison pasture GRASS | | Change Station
CLOSE
Current Station
Personal Weather Station
Location: Alexander, ND
Elevation: 2260 ft
Nearby Weather Stations

Elev 2260 ft 47.87 °N, 103.62 °W | Updated 10 minutes ago

Clear
Clear
86.5 °F
Feels Like 85 °F
N
15.0
Wind Variable Wind from SE

Today
High -- | Low -- °F
--% Chance of Precip.
Yesterday
High -- | Low -- °F
Precip. -- in
6:34 AM 9:24 PM
Waning Gibbous, 74% visible
Pressure 29.87 in
Visibility 10.0 miles
Clouds Clear
Heat Index 85 °F
Dew Point 57 °F
Humidity 37%
Rainfall 0.00 in
Snow Depth Not available.
UV 6 out of 12
Pollen 7.40 out of 12
Air Quality Not available.
Flu Activity Not available.
METAR KISN 042152Z AUTO 14012KT 10SM CLR 31/11 A2990 RMK AO2 SLP113 T03110111

More Conditions Fewer Conditions

Pressure 29.87 in
Visibility 10.0 miles
Clouds Clear
Heat Index 85 °F
Dew Point 57 °F
Humidity 37%
Rainfall 0.00 in
Snow Depth Not available.
UV 6 out of 12
Pollen 7.40 out of 12
Air Quality Not available.
Flu Activity Not available.
METAR KISN 042152Z AUTO 14012KT 10SM CLR 31/11 A2990 RMK AO2 SLP113 T03110111

More Conditions Fewer Conditions

10-Day Weather Forecast

×

Almanac

Astronomy

Aug. 04, 2015 Rise Set
Actual Time
Civil Twilight
Nautical Twilight
Astronomical Twilight
Moon
Length of Visible Light
Length of Day
Tomorrow will be .
, % of the Moon is Illuminated

Today's Extremes

State Highs State Lows

Community

WunderPhotos

Upload Photos

1,844,007 photos uploaded!

WunderBlogs® & News

Nearby

Air Quality

  Air Quality AQ Index Pollutant
Not available.

Snow Depth

Station Depth Elevation

Earthquake Activity

City Distance Mag. Time & Date
Minimum magnitude displayed is 2.5.

Coastal Water Temperatures

Place Temperature

Stations

Nearby Weather Stations

Station Location Temp. Windchill Dew Point Humidity Wind Precip. Elev Updated Type